createdAt,value
2018-06-14T00:02:09.436Z,85.80
2018-06-14T00:07:31.295Z,95.14
2018-06-14T00:10:10.019Z,90.58
2018-06-14T00:13:02.868Z,88.72
2018-06-14T00:18:44.880Z,87.87
2018-06-14T00:21:27.093Z,95.30
2018-06-14T00:24:11.555Z,87.13
2018-06-14T00:29:37.172Z,89.75
2018-06-14T00:35:22.951Z,88.59
2018-06-14T00:38:02.081Z,88.59
2018-06-14T00:40:44.893Z,85.22
2018-06-14T01:38:56.720Z,91.33
2018-06-14T01:41:33.657Z,91.12
2018-06-14T01:44:15.388Z,92.51
2018-06-14T01:47:01.153Z,92.88
2018-06-14T01:49:43.536Z,92.02
2018-06-14T01:52:26.362Z,91.44
2018-06-14T01:57:57.814Z,92.47
2018-06-14T02:00:29.726Z,92.92
2018-06-14T02:03:04.709Z,93.69
2018-06-14T02:05:43.331Z,93.12
2018-06-14T04:27:53.636Z,93.62
2018-06-14T04:30:30.077Z,91.31
2018-06-14T04:33:15.283Z,90.60
2018-06-14T04:41:26.158Z,81.29
2018-06-14T04:44:03.676Z,80.60
2018-06-14T04:46:48.494Z,76.51
2018-06-14T04:49:23.708Z,73.39
2018-06-14T04:54:44.741Z,71.36
2018-06-14T04:57:31.905Z,74.81
2018-06-14T05:02:57.550Z,75.08
2018-06-14T05:05:33.207Z,70.27
2018-06-14T05:08:12.186Z,72.01
2018-06-14T05:10:51.207Z,71.00
2018-06-14T05:13:39.688Z,72.92
2018-06-14T05:16:34.717Z,69.30
2018-06-14T05:19:38.826Z,70.52
2018-06-14T05:25:12.353Z,65.85
2018-06-14T05:28:01.723Z,69.72
2018-06-14T05:33:37.497Z,62.78
2018-06-14T05:36:28.316Z,67.70
2018-06-14T05:39:07.328Z,67.89
2018-06-14T05:41:57.414Z,65.89
2018-06-14T05:47:26.196Z,65.20
2018-06-14T05:50:12.036Z,60.54
2018-06-14T05:52:49.955Z,64.99
2018-06-14T05:55:18.741Z,63.55
2018-06-14T05:57:47.366Z,70.09
2018-06-14T06:00:19.340Z,64.21
2018-06-14T06:02:52.393Z,68.88
2018-06-14T06:05:21.811Z,70.41
2018-06-14T06:07:50.912Z,70.70
2018-06-14T06:10:19.749Z,61.94
2018-06-14T06:12:48.410Z,68.67
2018-06-14T06:18:32.120Z,65.50
2018-06-14T06:21:04.579Z,63.79
2018-06-14T06:23:33.216Z,60.53
2018-06-14T06:26:02.260Z,58.66
2018-06-14T06:28:31.292Z,61.65
2018-06-14T06:30:59.942Z,58.96
2018-06-14T06:33:30.476Z,53.63
2018-06-14T06:35:59.067Z,55.69
2018-06-14T06:38:28.138Z,56.55
2018-06-14T06:40:57.011Z,56.42
2018-06-14T06:43:26.195Z,61.92
2018-06-14T06:45:55.419Z,62.31
2018-06-14T06:48:25.221Z,53.14
2018-06-14T06:50:54.145Z,57.01
2018-06-14T06:53:23.534Z,56.86
2018-06-14T06:55:52.588Z,58.67
2018-06-14T06:58:21.384Z,57.75
2018-06-14T07:00:50.925Z,55.50
2018-06-14T07:03:20.393Z,55.87
2018-06-14T07:05:49.125Z,60.33
2018-06-14T07:08:19.571Z,59.45
2018-06-14T07:10:49.866Z,55.06
2018-06-14T07:13:19.132Z,54.70
2018-06-14T07:15:50.108Z,53.81
2018-06-14T07:18:20.140Z,53.43
2018-06-14T07:20:49.773Z,54.76
2018-06-14T07:23:21.177Z,57.36
2018-06-14T07:25:51.909Z,53.04
2018-06-14T07:28:21.620Z,49.94
2018-06-14T07:30:51.279Z,54.35
2018-06-14T07:33:20.620Z,48.81
2018-06-14T07:35:50.143Z,52.76
2018-06-14T07:38:19.173Z,49.93
2018-06-14T07:40:49.176Z,45.07
2018-06-14T07:43:18.776Z,55.77
2018-06-14T07:45:47.984Z,49.51
2018-06-14T07:48:17.090Z,54.46
2018-06-14T07:50:46.020Z,48.60
2018-06-14T07:53:15.213Z,46.40
2018-06-14T07:55:44.308Z,41.80
2018-06-14T07:58:14.880Z,42.97
2018-06-14T08:00:44.433Z,37.83
2018-06-14T08:03:13.233Z,39.89
2018-06-14T08:05:43.052Z,41.13
2018-06-14T08:08:14.073Z,34.07
2018-06-14T08:10:42.987Z,38.26
2018-06-14T08:13:12.170Z,37.93
2018-06-14T08:15:41.217Z,44.37
2018-06-14T08:18:10.562Z,39.18
2018-06-14T08:20:40.119Z,47.41
2018-06-14T08:23:09.867Z,40.06
2018-06-14T08:25:39.278Z,47.33
2018-06-14T08:28:09.118Z,44.67
2018-06-14T08:30:39.011Z,36.12
2018-06-14T08:33:08.341Z,36.45
2018-06-14T08:35:37.924Z,42.02
2018-06-14T08:38:07.079Z,42.75
2018-06-14T08:40:36.549Z,37.02
2018-06-14T08:43:05.897Z,37.16
2018-06-14T08:45:35.319Z,39.08
2018-06-14T08:48:04.642Z,36.74
2018-06-14T08:50:33.730Z,36.86
2018-06-14T08:53:02.895Z,41.46
2018-06-14T08:55:32.517Z,38.75
2018-06-14T08:58:02.098Z,43.91
2018-06-14T09:00:31.804Z,43.54
2018-06-14T09:03:01.510Z,43.54
2018-06-14T09:05:31.427Z,45.41
2018-06-14T09:08:01.878Z,39.78
2018-06-14T09:10:30.831Z,32.19
2018-06-14T09:13:00.030Z,42.39
2018-06-14T09:15:28.934Z,42.64
2018-06-14T09:17:58.309Z,38.78
2018-06-14T09:20:27.609Z,41.69
2018-06-14T09:22:56.655Z,36.92
2018-06-14T09:25:25.797Z,31.55
2018-06-14T09:27:54.930Z,35.56
2018-06-14T09:30:24.439Z,39.96
2018-06-14T09:32:53.989Z,39.70
2018-06-14T09:35:24.069Z,36.22
2018-06-14T09:37:53.717Z,37.57
2018-06-14T09:40:23.401Z,32.22
2018-06-14T09:42:52.246Z,32.79
2018-06-14T09:45:21.155Z,29.52
2018-06-14T09:47:50.180Z,34.85
2018-06-14T09:50:20.087Z,33.78
2018-06-14T09:52:51.937Z,36.43
2018-06-14T09:55:21.654Z,32.23
2018-06-14T09:57:51.052Z,30.36
2018-06-14T10:00:19.831Z,29.08
2018-06-14T10:02:48.580Z,33.04
2018-06-14T10:05:19.994Z,33.25
2018-06-14T10:07:49.215Z,37.65
2018-06-14T10:10:19.107Z,33.90
2018-06-14T10:12:52.497Z,35.46
2018-06-14T10:15:22.041Z,33.60
2018-06-14T10:17:51.082Z,34.57
2018-06-14T10:20:19.911Z,29.69
2018-06-14T10:22:49.200Z,28.57
2018-06-14T10:25:18.136Z,30.63
2018-06-14T10:27:46.885Z,38.97
2018-06-14T10:30:15.622Z,31.39
2018-06-14T10:32:44.433Z,34.27
2018-06-14T10:35:13.334Z,29.50
2018-06-14T10:37:42.294Z,28.16
2018-06-14T10:40:11.258Z,37.31
2018-06-14T10:42:40.709Z,32.57
2018-06-14T10:45:09.718Z,31.72
2018-06-14T10:47:38.676Z,37.91
2018-06-14T10:50:07.294Z,32.17
2018-06-14T10:52:36.153Z,31.36
2018-06-14T10:55:05.686Z,36.67
2018-06-14T10:57:34.749Z,29.99
2018-06-14T11:00:05.100Z,28.66
2018-06-14T11:02:34.017Z,36.03
2018-06-14T11:05:02.929Z,33.75
2018-06-14T11:07:31.741Z,30.08
2018-06-14T11:10:00.507Z,33.65
2018-06-14T11:12:29.391Z,33.54
2018-06-14T11:14:58.116Z,32.27
2018-06-14T11:17:26.953Z,38.98
2018-06-14T11:19:55.837Z,37.02
2018-06-14T11:22:24.830Z,32.57
2018-06-14T11:24:57.854Z,32.23
2018-06-14T11:27:26.661Z,29.94
2018-06-14T11:29:55.593Z,35.39
2018-06-14T11:32:25.701Z,32.08
2018-06-14T11:34:54.953Z,31.75
2018-06-14T11:37:24.740Z,33.29
2018-06-14T11:39:53.712Z,32.99
2018-06-14T11:42:23.501Z,34.22
2018-06-14T11:44:53.695Z,31.12
2018-06-14T11:47:23.624Z,30.40
2018-06-14T11:49:52.952Z,32.03
2018-06-14T11:52:22.213Z,34.98
2018-06-14T11:54:52.012Z,30.74
2018-06-14T11:57:21.140Z,31.71
2018-06-14T11:59:51.227Z,35.46
2018-06-14T12:02:21.095Z,31.14
2018-06-14T12:04:51.864Z,31.80
2018-06-14T12:07:20.498Z,33.16
2018-06-14T12:09:49.205Z,29.60
2018-06-14T12:12:19.160Z,27.92
2018-06-14T12:14:47.877Z,23.92
2018-06-14T12:17:16.492Z,29.18
2018-06-14T12:19:45.216Z,21.74
2018-06-14T12:22:14.062Z,20.79
2018-06-14T12:24:42.760Z,23.40
2018-06-14T12:27:11.514Z,23.93
2018-06-14T12:29:40.259Z,24.32
2018-06-14T12:32:09.153Z,23.26
2018-06-14T12:34:37.978Z,17.86
2018-06-14T12:37:06.734Z,18.66
2018-06-14T12:39:35.639Z,15.61
2018-06-14T12:42:04.417Z,14.79
2018-06-14T12:44:33.313Z,15.60
2018-06-14T12:47:02.109Z,14.66
2018-06-14T12:49:33.282Z,14.72
2018-06-14T12:52:03.164Z,12.00
2018-06-14T12:54:31.981Z,16.41
2018-06-14T12:57:00.814Z,16.77
2018-06-14T12:59:29.524Z,19.56
2018-06-14T13:01:58.319Z,15.31
2018-06-14T13:04:27.253Z,14.83
2018-06-14T13:06:56.105Z,15.87
2018-06-14T13:09:25.110Z,13.25
2018-06-14T13:11:53.661Z,14.88
2018-06-14T13:14:22.436Z,13.88
2018-06-14T13:16:51.205Z,13.37
2018-06-14T13:19:19.935Z,15.57
2018-06-14T13:21:48.633Z,12.86
2018-06-14T13:24:17.363Z,13.76
2018-06-14T13:26:46.020Z,14.01
2018-06-14T13:29:14.757Z,16.25
2018-06-14T13:31:43.451Z,15.16
2018-06-14T13:34:12.097Z,14.49
2018-06-14T13:36:40.798Z,14.61
2018-06-14T13:39:09.808Z,14.14
2018-06-14T13:41:38.517Z,13.84
2018-06-14T13:44:07.173Z,14.48
2018-06-14T13:46:39.708Z,14.60
2018-06-14T13:49:08.977Z,15.09
2018-06-14T13:51:37.478Z,18.71
2018-06-14T13:54:06.248Z,20.11
2018-06-14T13:56:34.879Z,21.45
2018-06-14T13:59:03.853Z,23.29
2018-06-14T14:01:32.797Z,24.12
2018-06-14T14:04:01.806Z,19.87
2018-06-14T14:06:31.114Z,20.46
2018-06-14T14:08:59.978Z,19.59
2018-06-14T14:11:29.838Z,17.37
2018-06-14T14:13:58.661Z,16.90
2018-06-14T14:16:29.142Z,15.07
2018-06-14T14:18:57.878Z,15.38
2018-06-14T14:21:26.665Z,14.92
2018-06-14T14:23:55.400Z,19.73
2018-06-14T14:26:25.069Z,21.16
2018-06-14T14:28:53.673Z,19.89
2018-06-14T14:31:22.632Z,20.40
2018-06-14T14:33:51.246Z,17.92
2018-06-14T14:36:20.012Z,17.31
2018-06-14T14:38:49.106Z,16.10
2018-06-14T14:41:17.880Z,13.83
2018-06-14T14:43:46.537Z,12.41
2018-06-14T14:46:15.253Z,12.84
2018-06-14T14:48:43.885Z,15.46
2018-06-14T14:51:12.548Z,12.38
2018-06-14T14:53:41.118Z,13.31
2018-06-14T14:56:10.138Z,14.01
2018-06-14T14:58:39.014Z,15.98
2018-06-14T15:01:08.046Z,14.58
2018-06-14T15:03:36.891Z,14.13
2018-06-14T15:06:05.582Z,13.52
2018-06-14T15:08:34.331Z,13.42
2018-06-14T15:11:03.085Z,12.50
2018-06-14T15:13:31.852Z,12.14
2018-06-14T15:16:00.781Z,12.58
2018-06-14T15:18:29.398Z,11.50
2018-06-14T15:20:57.994Z,12.99
2018-06-14T15:23:26.617Z,13.32
2018-06-14T15:25:55.499Z,14.45
2018-06-14T15:28:24.377Z,14.74
2018-06-14T15:30:53.009Z,16.12
2018-06-14T15:33:21.691Z,15.57
2018-06-14T15:35:50.619Z,13.72
2018-06-14T15:38:19.214Z,14.10
2018-06-14T15:40:47.922Z,13.56
2018-06-14T15:43:16.630Z,16.28
2018-06-14T15:45:45.276Z,13.97
2018-06-14T15:48:14.090Z,13.60
2018-06-14T15:50:42.795Z,12.35
2018-06-14T15:53:11.449Z,13.43
2018-06-14T15:56:02.997Z,11.05
2018-06-14T15:58:32.152Z,12.14
2018-06-14T16:01:00.877Z,12.90
2018-06-14T16:03:29.611Z,12.85
2018-06-14T16:05:58.385Z,12.44
2018-06-14T16:08:26.995Z,13.97
2018-06-14T16:10:55.595Z,14.36
2018-06-14T16:13:24.317Z,16.22
2018-06-14T16:15:52.896Z,14.09
2018-06-14T16:18:21.541Z,14.82
2018-06-14T16:20:50.166Z,14.86
2018-06-14T16:23:18.806Z,13.76
2018-06-14T16:25:47.503Z,13.66
2018-06-14T16:28:16.263Z,14.34
2018-06-14T16:30:44.965Z,15.32
2018-06-14T16:33:13.821Z,15.10
2018-06-14T16:35:42.868Z,16.53
2018-06-14T16:38:11.530Z,15.95
2018-06-14T16:40:40.284Z,15.74
2018-06-14T16:43:09.061Z,16.09
2018-06-14T16:45:37.835Z,16.53
2018-06-14T16:48:06.503Z,18.09
2018-06-14T16:50:35.219Z,17.66
2018-06-14T16:53:04.018Z,16.24
2018-06-14T16:55:32.945Z,17.59
2018-06-14T16:58:01.670Z,17.43
2018-06-14T17:00:30.764Z,17.61
2018-06-14T17:02:59.540Z,20.20
2018-06-14T17:05:28.298Z,19.01
2018-06-14T17:07:57.065Z,19.93
2018-06-14T17:10:25.691Z,19.02
2018-06-14T17:12:54.359Z,17.49
2018-06-14T17:15:23.000Z,17.26
2018-06-14T17:17:51.631Z,17.89
2018-06-14T17:20:20.429Z,21.73
2018-06-14T17:22:49.102Z,19.13
2018-06-14T17:25:17.900Z,19.66
2018-06-14T17:27:46.724Z,19.58
2018-06-14T17:30:15.385Z,20.48
2018-06-14T17:32:44.066Z,20.85
2018-06-14T17:35:12.697Z,20.48
2018-06-14T17:37:41.412Z,21.63
2018-06-14T17:40:10.123Z,21.84
2018-06-14T17:42:39.002Z,22.35
2018-06-14T17:45:07.654Z,23.99
2018-06-14T17:47:36.387Z,24.84
2018-06-14T17:50:05.216Z,27.32
2018-06-14T17:52:35.076Z,28.22
2018-06-14T17:55:04.975Z,27.56
2018-06-14T17:57:33.911Z,29.86
2018-06-14T18:00:02.833Z,31.18
2018-06-14T18:02:31.477Z,30.89
2018-06-14T18:05:01.211Z,32.40
2018-06-14T18:07:30.364Z,31.21
2018-06-14T18:09:59.704Z,34.14
2018-06-14T18:12:28.640Z,34.23
2018-06-14T18:14:57.357Z,32.77
2018-06-14T18:17:31.928Z,33.38
2018-06-14T18:20:01.230Z,35.50
2018-06-14T18:22:30.190Z,36.28
2018-06-14T18:24:59.157Z,37.93
2018-06-14T18:27:28.545Z,38.06
2018-06-14T18:29:57.694Z,39.25
2018-06-14T18:32:26.864Z,39.26
2018-06-14T18:34:55.774Z,38.78
2018-06-14T18:37:25.882Z,41.82
2018-06-14T18:39:54.849Z,41.26
2018-06-14T18:42:23.543Z,49.51
2018-06-14T18:44:52.229Z,51.21
2018-06-14T18:47:20.981Z,50.65
2018-06-14T18:49:49.866Z,49.20
2018-06-14T18:52:18.570Z,50.59
2018-06-14T18:54:48.329Z,51.44
2018-06-14T18:57:17.264Z,48.57
2018-06-14T18:59:45.948Z,43.58
2018-06-14T19:02:14.841Z,51.61
2018-06-14T19:04:43.533Z,45.19
2018-06-14T19:07:12.235Z,50.52
2018-06-14T19:09:40.959Z,47.53
2018-06-14T19:12:09.586Z,46.58
2018-06-14T19:14:38.398Z,47.72
2018-06-14T19:17:07.364Z,49.00
2018-06-14T19:19:36.114Z,50.25
2018-06-14T19:22:05.031Z,53.60
2018-06-14T19:24:33.921Z,53.71
2018-06-14T19:27:02.568Z,56.06
2018-06-14T19:29:31.375Z,55.60
2018-06-14T19:32:00.385Z,55.10
2018-06-14T19:34:29.555Z,57.39
2018-06-14T19:36:58.501Z,59.41
2018-06-14T19:39:27.714Z,61.69
2018-06-14T19:41:57.972Z,61.33
2018-06-14T19:44:27.013Z,66.86
2018-06-14T19:46:56.217Z,64.62
2018-06-14T19:49:25.271Z,63.64
2018-06-14T19:51:55.771Z,65.01
2018-06-14T19:54:25.385Z,65.16
2018-06-14T19:56:54.174Z,66.42
2018-06-14T19:59:23.052Z,68.84
2018-06-14T20:01:51.924Z,67.21
2018-06-14T20:04:20.643Z,68.41
2018-06-14T20:06:51.574Z,68.69
2018-06-14T20:09:20.760Z,70.33
2018-06-14T20:11:49.632Z,70.39
2018-06-14T20:14:18.505Z,71.38
2018-06-14T20:16:47.216Z,70.67
2018-06-14T20:19:15.953Z,72.82
2018-06-14T20:21:45.066Z,73.33
2018-06-14T20:24:13.820Z,72.35
2018-06-14T20:26:42.679Z,73.90
2018-06-14T20:29:11.499Z,75.43
2018-06-14T20:31:40.361Z,75.74
2018-06-14T20:34:10.071Z,76.56
2018-06-14T20:36:38.769Z,76.52
2018-06-14T20:39:10.936Z,74.51
2018-06-14T20:41:39.700Z,76.99
2018-06-14T20:44:08.768Z,78.10
2018-06-14T20:46:37.345Z,78.80
2018-06-14T20:49:07.291Z,78.44
2018-06-14T20:51:36.015Z,79.00
2018-06-14T20:54:04.717Z,76.95
2018-06-14T20:56:33.551Z,78.11
2018-06-14T20:59:02.276Z,79.88
2018-06-14T21:01:31.021Z,79.53
2018-06-14T21:03:59.783Z,79.39
2018-06-14T21:06:28.844Z,79.04
2018-06-14T21:08:57.891Z,77.29
2018-06-14T21:11:26.613Z,79.33
2018-06-14T21:13:55.378Z,77.97
2018-06-14T21:16:24.328Z,77.96
2018-06-14T21:18:53.038Z,79.50
2018-06-14T21:21:21.952Z,86.05
2018-06-14T21:23:50.791Z,87.30
2018-06-14T21:26:19.620Z,81.70
2018-06-14T21:28:48.254Z,76.88
2018-06-14T21:31:17.972Z,80.81
2018-06-14T21:33:46.806Z,77.84
2018-06-14T21:36:15.746Z,71.37
2018-06-14T21:38:44.670Z,72.38
2018-06-14T21:41:13.651Z,72.44
2018-06-14T21:43:42.397Z,73.79
2018-06-14T21:46:11.044Z,74.61
2018-06-14T21:48:43.966Z,76.67
2018-06-14T21:51:12.914Z,78.90
2018-06-14T21:53:41.610Z,79.21
2018-06-14T21:56:10.530Z,79.80
2018-06-14T21:58:40.379Z,82.22
2018-06-14T22:01:09.207Z,83.21
2018-06-14T22:03:43.323Z,81.56
2018-06-14T22:06:11.976Z,80.92
2018-06-14T22:08:40.710Z,81.63
2018-06-14T22:11:09.425Z,81.07
2018-06-14T22:13:38.111Z,83.42
2018-06-14T22:16:06.835Z,82.83
2018-06-14T22:18:35.680Z,84.01
2018-06-14T22:21:04.578Z,79.84
2018-06-14T22:23:33.262Z,79.02
2018-06-14T22:26:02.010Z,81.41
2018-06-14T22:28:30.839Z,81.34
2018-06-14T22:30:59.566Z,82.03
2018-06-14T22:33:39.237Z,80.45
2018-06-14T22:36:08.134Z,82.24
2018-06-14T22:38:36.777Z,83.95
2018-06-14T22:41:05.588Z,83.13
2018-06-14T22:43:34.315Z,84.10
2018-06-14T22:46:03.015Z,83.07
2018-06-14T22:48:31.870Z,83.23
2018-06-14T22:51:11.656Z,84.76
2018-06-14T22:53:40.426Z,84.48
2018-06-14T22:56:09.295Z,83.11
2018-06-14T22:58:37.971Z,84.12
2018-06-14T23:01:44.389Z,85.46
2018-06-14T23:04:14.379Z,85.33
2018-06-14T23:06:43.087Z,85.37
2018-06-14T23:10:36.900Z,84.29
2018-06-14T23:13:06.349Z,85.31
2018-06-14T23:15:35.123Z,87.70
2018-06-14T23:18:03.932Z,84.35
2018-06-14T23:20:33.438Z,85.87
2018-06-14T23:23:02.647Z,85.37
2018-06-14T23:25:31.783Z,85.18
2018-06-14T23:28:00.628Z,90.38
2018-06-14T23:30:29.451Z,86.94
2018-06-14T23:32:58.299Z,85.94
2018-06-14T23:35:27.021Z,90.04
2018-06-14T23:37:55.665Z,91.78
2018-06-14T23:40:24.573Z,89.41
2018-06-14T23:42:53.286Z,90.43
2018-06-14T23:45:22.235Z,85.90
2018-06-14T23:47:50.955Z,88.21
2018-06-14T23:50:19.871Z,87.97
2018-06-14T23:52:48.604Z,87.21
2018-06-14T23:55:17.245Z,87.61
2018-06-14T23:57:45.953Z,84.33
